Time;durP1;ratioP1;P1;durP2;ratioP2;P2;SDS_P1;SDS_P2;PMS_P1;PMS_P2;Temp;Humidity;BMP_temperature;BMP_pressure;BME280_temperature;BME280_humidity;BME280_pressure;Samples;Min_cycle;Max_cycle;Signal;HPM_P1;HPM_P2
2022/07/09 00:00:26;;;;;;;0.70;0.10;;;20.70;99.90;;;;;;4915062;29;20456;-73
2022/07/09 00:02:54;;;;;;;0.70;0.10;;;20.60;99.90;;;;;;4931776;23;20510;-76
2022/07/09 00:05:22;;;;;;;1.70;1.60;;;20.60;99.90;;;;;;4933212;29;20509;-77
2022/07/09 00:07:51;;;;;;;0.70;0.20;;;20.60;99.90;;;;;;4934355;29;20961;-77
2022/07/09 00:10:19;;;;;;;0.60;0.10;;;20.60;99.90;;;;;;4935365;29;20511;-76
2022/07/09 00:12:50;;;;;;;0.60;0.10;;;20.60;99.90;;;;;;4938473;29;20471;-78
2022/07/09 00:15:18;;;;;;;0.70;0.10;;;20.60;99.90;;;;;;4938179;29;20452;-78
2022/07/09 00:17:46;;;;;;;0.70;0.10;;;20.60;99.90;;;;;;4938239;29;20431;-77
2022/07/09 00:20:14;;;;;;;0.60;0.10;;;20.50;99.90;;;;;;4933554;29;20457;-77
2022/07/09 00:22:42;;;;;;;0.70;0.20;;;20.50;99.90;;;;;;4919101;29;20497;-77
2022/07/09 00:25:11;;;;;;;0.70;0.20;;;20.50;99.90;;;;;;4918939;29;20453;-77
2022/07/09 00:27:39;;;;;;;0.70;0.10;;;20.60;99.90;;;;;;4923379;29;20482;-76
2022/07/09 00:30:08;;;;;;;0.70;0.10;;;20.50;99.90;;;;;;4938001;29;20451;-76
2022/07/09 00:32:36;;;;;;;0.70;0.10;;;20.50;99.90;;;;;;4938052;29;20463;-77
2022/07/09 00:35:05;;;;;;;0.70;0.10;;;20.50;99.90;;;;;;4937621;29;20458;-77
2022/07/09 00:37:33;;;;;;;0.63;0.10;;;20.50;99.90;;;;;;4939777;29;20460;-77
2022/07/09 00:40:00;;;;;;;0.70;0.13;;;20.40;99.90;;;;;;4937747;29;20456;-77
2022/07/09 00:42:30;;;;;;;0.70;0.10;;;20.40;99.90;;;;;;4938860;29;20487;-77
2022/07/09 00:44:58;;;;;;;0.70;0.10;;;20.40;99.90;;;;;;4943687;29;20959;-77
2022/07/09 00:47:26;;;;;;;0.70;0.30;;;20.40;99.90;;;;;;4943874;29;20862;-78
2022/07/09 00:49:55;;;;;;;0.70;0.10;;;20.40;99.90;;;;;;4938287;29;20951;-77
2022/07/09 00:52:23;;;;;;;0.70;0.13;;;20.30;99.90;;;;;;4937169;29;20476;-78
2022/07/09 00:54:51;;;;;;;0.70;0.20;;;20.30;99.90;;;;;;4918549;29;20452;-77
2022/07/09 00:57:20;;;;;;;0.70;0.13;;;20.30;99.90;;;;;;4918276;29;20825;-78
2022/07/09 00:59:52;;;;;;;0.70;0.10;;;20.20;99.90;;;;;;4918203;29;21003;-77
2022/07/09 01:02:23;;;;;;;0.70;0.10;;;20.20;99.90;;;;;;4918286;29;20507;-78
2022/07/09 01:04:51;;;;;;;0.70;0.10;;;20.20;99.90;;;;;;4918310;29;20544;-77
2022/07/09 01:07:19;;;;;;;0.70;0.10;;;20.20;99.90;;;;;;4918409;29;20464;-78
2022/07/09 01:09:47;;;;;;;0.60;0.10;;;20.20;99.90;;;;;;4918387;29;20447;-77
2022/07/09 01:12:15;;;;;;;0.67;0.20;;;20.10;99.90;;;;;;4920365;29;20812;-78
2022/07/09 01:14:43;;;;;;;0.60;0.10;;;20.10;99.90;;;;;;4918395;29;20456;-78
2022/07/09 01:17:13;;;;;;;0.70;0.10;;;20.10;99.90;;;;;;4918387;29;20824;-78
2022/07/09 01:19:41;;;;;;;0.70;0.20;;;20.10;99.90;;;;;;4918848;29;20461;-77
2022/07/09 01:22:10;;;;;;;0.70;0.20;;;20.10;99.90;;;;;;4918438;29;20837;-77
2022/07/09 01:24:38;;;;;;;0.70;0.10;;;20.00;99.90;;;;;;4919239;29;20811;-77
2022/07/09 01:27:07;;;;;;;0.60;0.10;;;20.00;99.90;;;;;;4930108;29;20889;-77
2022/07/09 01:29:35;;;;;;;0.60;0.10;;;20.00;99.90;;;;;;4922482;29;20465;-77
2022/07/09 01:32:03;;;;;;;0.70;0.10;;;20.10;99.90;;;;;;4937615;29;20464;-79
2022/07/09 01:34:31;;;;;;;0.60;0.10;;;20.10;99.90;;;;;;4935031;29;20446;-78
2022/07/09 01:36:59;;;;;;;0.60;0.10;;;20.00;99.90;;;;;;4935985;29;20451;-77
2022/07/09 01:39:28;;;;;;;0.60;0.10;;;20.00;99.90;;;;;;4936472;29;20455;-78
2022/07/09 01:41:56;;;;;;;0.60;0.10;;;20.00;99.90;;;;;;4938507;29;20547;-78
2022/07/09 01:44:24;;;;;;;0.60;0.10;;;20.00;99.90;;;;;;4936506;29;20594;-77
2022/07/09 01:46:52;;;;;;;0.60;0.10;;;20.00;99.90;;;;;;4936526;29;20951;-77
2022/07/09 01:49:22;;;;;;;0.60;0.20;;;20.00;99.90;;;;;;4936861;29;20539;-77
2022/07/09 01:51:50;;;;;;;0.60;0.20;;;19.90;99.90;;;;;;4938425;29;20452;-79
2022/07/09 01:54:18;;;;;;;0.60;0.20;;;19.90;99.90;;;;;;4936698;29;20495;-78
2022/07/09 01:56:47;;;;;;;0.60;0.10;;;19.90;99.90;;;;;;4936015;29;20458;-77
2022/07/09 01:59:15;;;;;;;0.60;0.10;;;19.90;99.90;;;;;;4936696;29;20830;-77
2022/07/09 02:01:43;;;;;;;0.60;0.10;;;;;;;;;;4935815;29;20543;-77
2022/07/09 02:04:11;;;;;;;0.60;0.20;;;19.90;99.90;;;;;;4935807;29;20487;-77
2022/07/09 02:06:39;;;;;;;0.70;0.10;;;19.90;99.90;;;;;;4935989;29;20456;-76
2022/07/09 02:09:07;;;;;;;0.60;0.10;;;19.80;99.90;;;;;;4936562;29;20820;-76
2022/07/09 02:11:35;;;;;;;0.70;0.10;;;;;;;;;;4936700;29;20458;-77
2022/07/09 02:14:06;;;;;;;0.60;0.10;;;19.80;99.90;;;;;;4936148;29;20471;-77
2022/07/09 02:16:34;;;;;;;0.60;0.20;;;19.80;99.90;;;;;;4920262;29;20456;-77
2022/07/09 02:19:02;;;;;;;0.60;0.10;;;19.80;99.90;;;;;;4935977;29;20440;-77
2022/07/09 02:21:30;;;;;;;0.60;0.10;;;19.70;99.90;;;;;;4936277;29;20804;-77
2022/07/09 02:23:58;;;;;;;0.60;0.20;;;19.70;99.90;;;;;;4936112;29;20495;-78
2022/07/09 02:26:27;;;;;;;0.60;0.20;;;19.70;99.90;;;;;;4935611;29;20456;-77
2022/07/09 02:28:55;;;;;;;0.60;0.10;;;19.70;99.90;;;;;;4935735;29;20584;-78
2022/07/09 02:31:25;;;;;;;0.60;0.10;;;19.80;99.90;;;;;;4935473;29;20471;-77
2022/07/09 02:33:53;;;;;;;0.60;0.20;;;19.70;99.90;;;;;;4935201;29;20844;-77
2022/07/09 02:36:21;;;;;;;0.60;0.20;;;19.70;99.90;;;;;;4935471;29;20456;-77
2022/07/09 02:38:49;;;;;;;0.60;0.10;;;19.60;99.90;;;;;;4935780;29;20436;-78
2022/07/09 02:41:17;;;;;;;0.60;0.10;;;19.60;99.90;;;;;;4935574;29;20458;-77
2022/07/09 02:43:45;;;;;;;0.60;0.10;;;19.50;99.90;;;;;;4935532;29;20995;-78
2022/07/09 02:46:13;;;;;;;0.60;0.10;;;19.40;99.90;;;;;;4935351;29;20444;-78
2022/07/09 02:48:42;;;;;;;0.60;0.10;;;19.40;99.90;;;;;;4935843;29;20535;-76
2022/07/09 02:51:10;;;;;;;0.60;0.17;;;19.30;99.90;;;;;;4935845;29;20645;-78
2022/07/09 02:53:38;;;;;;;0.60;0.20;;;19.30;99.90;;;;;;4935652;29;20464;-76
2022/07/09 02:56:06;;;;;;;0.60;0.10;;;19.30;99.90;;;;;;4934889;29;20466;-79
2022/07/09 02:58:34;;;;;;;0.60;0.10;;;19.30;99.90;;;;;;4934978;29;20463;-78
2022/07/09 03:01:05;;;;;;;0.60;0.20;;;19.30;99.90;;;;;;4935221;29;20452;-77
2022/07/09 03:03:35;;;;;;;0.60;0.10;;;19.30;99.90;;;;;;4935327;29;20491;-78
2022/07/09 03:06:05;;;;;;;0.60;0.10;;;19.30;99.90;;;;;;4935296;29;20455;-78
2022/07/09 03:08:33;;;;;;;0.60;0.20;;;19.30;99.90;;;;;;4935584;29;20578;-77
2022/07/09 03:11:02;;;;;;;0.60;0.10;;;19.30;99.90;;;;;;4934718;29;20480;-77
2022/07/09 03:13:30;;;;;;;0.60;0.10;;;19.30;99.90;;;;;;4916067;29;20509;-77
2022/07/09 03:15:58;;;;;;;0.60;0.10;;;19.30;99.90;;;;;;4916211;29;20456;-77
2022/07/09 03:18:26;;;;;;;0.60;0.20;;;19.30;99.90;;;;;;4916136;29;20551;-77
2022/07/09 03:20:55;;;;;;;0.60;0.10;;;19.30;99.90;;;;;;4916445;29;20459;-78
2022/07/09 03:23:24;;;;;;;0.60;0.10;;;19.30;99.90;;;;;;4916579;29;20484;-77
2022/07/09 03:25:52;;;;;;;0.60;0.10;;;19.30;99.90;;;;;;4921788;29;20492;-78
2022/07/09 03:28:20;;;;;;;0.60;0.10;;;19.30;99.90;;;;;;4935684;29;20476;-77
2022/07/09 03:30:48;;;;;;;0.60;0.17;;;19.30;99.90;;;;;;4942202;29;20448;-77
2022/07/09 03:33:16;;;;;;;0.60;0.10;;;19.30;99.90;;;;;;4939390;29;20460;-78
2022/07/09 03:35:43;;;;;;;0.60;0.10;;;19.30;99.90;;;;;;4934522;29;20455;-78
2022/07/09 03:38:12;;;;;;;0.60;0.20;;;19.30;1.00;;;;;;4934762;29;20463;-78
2022/07/09 03:40:41;;;;;;;0.60;0.10;;;19.30;1.00;;;;;;4927197;29;20463;-78
2022/07/09 03:43:09;;;;;;;0.60;0.10;;;19.30;1.00;;;;;;4916216;29;20488;-77
2022/07/09 03:45:37;;;;;;;0.60;0.10;;;19.30;1.00;;;;;;4916950;29;20983;-77
2022/07/09 03:48:06;;;;;;;0.60;0.10;;;19.30;1.00;;;;;;4919828;29;20445;-78
2022/07/09 03:50:33;;;;;;;0.60;0.20;;;19.30;1.00;;;;;;4919984;29;20461;-78
2022/07/09 03:53:01;;;;;;;0.60;0.10;;;19.30;1.00;;;;;;4919832;29;20472;-78
2022/07/09 03:55:30;;;;;;;0.60;0.10;;;19.30;1.00;;;;;;4935400;29;20536;-77
2022/07/09 03:57:59;;;;;;;0.60;0.10;;;19.30;1.00;;;;;;4938339;29;20535;-77
2022/07/09 04:00:28;;;;;;;0.60;0.10;;;19.10;1.00;;;;;;4939119;29;20737;-78
2022/07/09 04:02:56;;;;;;;0.60;0.10;;;19.00;1.00;;;;;;4939713;29;20479;-78
2022/07/09 04:05:24;;;;;;;0.60;0.10;;;19.00;1.00;;;;;;4939693;29;20487;-78
2022/07/09 04:07:51;;;;;;;0.60;0.10;;;18.90;1.00;;;;;;4938295;29;20943;-78
2022/07/09 04:10:19;;;;;;;0.60;0.20;;;18.90;1.00;;;;;;4921173;29;20467;-78
2022/07/09 04:12:47;;;;;;;0.60;0.10;;;18.90;1.00;;;;;;4920946;29;20469;-78
2022/07/09 04:15:17;;;;;;;0.60;0.10;;;19.00;1.00;;;;;;4921249;29;20441;-77
2022/07/09 04:17:44;;;;;;;0.60;0.10;;;19.00;1.00;;;;;;4920778;29;20478;-77
2022/07/09 04:20:12;;;;;;;0.60;0.10;;;19.00;1.00;;;;;;4922322;29;20487;-77
2022/07/09 04:22:40;;;;;;;0.60;0.10;;;19.00;1.00;;;;;;4925735;29;21028;-77
2022/07/09 04:25:09;;;;;;;0.60;0.10;;;19.00;1.00;;;;;;4938384;29;20480;-77
2022/07/09 04:27:38;;;;;;;0.60;0.10;;;19.10;1.00;;;;;;4938168;29;20451;-77
2022/07/09 04:30:08;;;;;;;0.60;0.10;;;19.10;1.00;;;;;;4940570;29;20447;-77
2022/07/09 04:32:38;;;;;;;0.60;0.10;;;19.10;1.00;;;;;;4939766;29;20487;-77
2022/07/09 04:35:07;;;;;;;0.70;0.50;;;19.10;1.00;;;;;;4939427;29;20464;-78
2022/07/09 04:37:35;;;;;;;0.60;0.13;;;19.20;1.00;;;;;;4928183;29;20492;-77
2022/07/09 04:40:03;;;;;;;0.60;0.10;;;19.20;1.00;;;;;;4921523;29;20461;-79
2022/07/09 04:42:31;;;;;;;0.60;0.10;;;19.30;1.00;;;;;;4922730;29;20492;-78
2022/07/09 04:44:59;;;;;;;0.60;0.13;;;19.30;1.00;;;;;;4923424;29;21071;-78
2022/07/09 04:47:26;;;;;;;0.60;0.10;;;19.40;1.00;;;;;;4928926;29;20476;-77
2022/07/09 04:49:56;;;;;;;0.60;0.20;;;19.40;1.00;;;;;;4930020;29;20478;-76
2022/07/09 04:52:26;;;;;;;0.60;0.10;;;19.50;1.00;;;;;;4927959;29;20505;-77
2022/07/09 04:54:54;;;;;;;0.60;0.10;;;19.50;1.00;;;;;;4920829;29;20483;-77
2022/07/09 04:57:22;;;;;;;0.60;0.10;;;19.60;1.00;;;;;;4918666;29;20449;-76
2022/07/09 04:59:50;;;;;;;0.60;0.10;;;19.60;1.00;;;;;;4919604;29;20455;-76
2022/07/09 05:02:18;;;;;;;0.60;0.20;;;19.60;1.00;;;;;;4934430;29;20505;-77
2022/07/09 05:04:46;;;;;;;0.60;0.10;;;19.70;1.00;;;;;;4943147;29;20483;-76
2022/07/09 05:07:15;;;;;;;0.60;0.10;;;19.80;99.90;;;;;;4918492;29;20453;-77
2022/07/09 05:09:43;;;;;;;0.60;0.10;;;19.80;99.90;;;;;;4933029;29;20461;-76
2022/07/09 05:12:11;;;;;;;0.60;0.10;;;19.80;99.90;;;;;;4956646;29;20464;-76
2022/07/09 05:14:39;;;;;;;0.60;0.13;;;19.80;99.90;;;;;;4956500;29;20824;-76
2022/07/09 05:17:07;;;;;;;0.60;0.10;;;19.90;99.90;;;;;;4941683;29;20951;-77
2022/07/09 05:19:35;;;;;;;0.60;0.20;;;19.90;99.90;;;;;;4923204;29;20456;-76
2022/07/09 05:22:04;;;;;;;0.60;0.10;;;19.90;99.90;;;;;;4932778;29;20544;-77
2022/07/09 05:24:33;;;;;;;0.60;0.10;;;19.90;99.90;;;;;;4936796;29;20444;-77
2022/07/09 05:27:01;;;;;;;0.60;0.10;;;19.90;99.90;;;;;;4936888;29;20478;-76
2022/07/09 05:29:29;;;;;;;0.60;0.20;;;20.00;99.90;;;;;;4917999;29;20452;-77
2022/07/09 05:31:57;;;;;;;0.60;0.20;;;20.00;99.90;;;;;;4931567;29;20463;-76
2022/07/09 05:34:25;;;;;;;0.60;0.10;;;20.10;99.90;;;;;;4934257;29;20444;-77
2022/07/09 05:36:54;;;;;;;0.60;0.10;;;20.10;99.90;;;;;;4936838;29;20830;-77
2022/07/09 05:39:23;;;;;;;0.60;0.20;;;20.10;99.90;;;;;;4936742;29;20459;-76
2022/07/09 05:41:52;;;;;;;0.60;0.20;;;20.20;99.90;;;;;;4937143;29;20934;-77
2022/07/09 05:44:20;;;;;;;0.70;0.10;;;20.20;99.90;;;;;;4936926;29;20452;-77
2022/07/09 05:46:52;;;;;;;0.60;0.10;;;20.10;99.90;;;;;;4931953;29;20503;-77
2022/07/09 05:49:20;;;;;;;0.60;0.10;;;20.20;99.90;;;;;;4931409;29;20922;-77
2022/07/09 05:51:48;;;;;;;0.70;0.20;;;20.30;99.90;;;;;;4917334;29;20464;-77
2022/07/09 05:54:16;;;;;;;0.60;0.10;;;20.30;99.90;;;;;;4918311;29;20449;-77
2022/07/09 05:56:44;;;;;;;0.67;0.10;;;20.30;99.90;;;;;;4921051;29;20448;-77
2022/07/09 05:59:13;;;;;;;0.60;0.10;;;20.40;99.90;;;;;;4941155;29;20455;-77
2022/07/09 06:01:42;;;;;;;0.60;0.20;;;20.30;99.90;;;;;;4936468;29;20449;-77
2022/07/09 06:04:10;;;;;;;0.60;0.20;;;20.50;99.90;;;;;;4937083;29;20455;-77
2022/07/09 06:06:38;;;;;;;0.60;0.13;;;20.50;99.90;;;;;;4936407;29;20535;-77
2022/07/09 06:09:06;;;;;;;0.60;0.10;;;20.60;99.90;;;;;;4935441;29;20970;-78
2022/07/09 06:11:34;;;;;;;0.60;0.10;;;20.70;99.90;;;;;;4936867;29;20516;-77
2022/07/09 06:14:02;;;;;;;0.63;0.20;;;20.60;99.90;;;;;;4936675;29;20555;-77
2022/07/09 06:16:32;;;;;;;0.67;0.17;;;20.60;99.90;;;;;;4940357;29;20807;-77
2022/07/09 06:19:00;;;;;;;0.60;0.10;;;20.80;99.90;;;;;;4937364;29;20453;-76
2022/07/09 06:21:28;;;;;;;0.63;0.10;;;20.80;99.90;;;;;;4926290;29;20456;-76
2022/07/09 06:23:56;;;;;;;0.70;0.13;;;20.80;99.90;;;;;;4921597;29;20484;-76
2022/07/09 06:26:24;;;;;;;0.60;0.20;;;20.80;99.90;;;;;;4922071;29;20481;-77
2022/07/09 06:28:52;;;;;;;0.60;0.10;;;20.90;99.90;;;;;;4934595;29;20459;-76
2022/07/09 06:31:20;;;;;;;0.70;0.20;;;20.90;99.90;;;;;;4938832;29;20436;-78
2022/07/09 06:33:50;;;;;;;0.70;0.10;;;21.00;99.90;;;;;;4937267;29;20559;-77
2022/07/09 06:36:17;;;;;;;0.70;0.10;;;21.00;99.90;;;;;;4918944;29;20470;-77
2022/07/09 06:41:33;;;;;;;0.70;0.20;;;21.20;99.90;;;;;;4918608;29;20460;-77
2022/07/09 06:44:01;;;;;;;0.70;0.20;;;21.40;99.90;;;;;;4918316;29;20475;-77
2022/07/09 06:46:28;;;;;;;0.67;0.10;;;21.40;99.90;;;;;;4916837;29;21022;-76
2022/07/09 06:48:58;;;;;;;0.70;0.20;;;21.50;99.90;;;;;;4918779;29;20532;-76
2022/07/09 06:51:26;;;;;;;0.70;0.20;;;21.60;99.90;;;;;;4918835;29;20461;-77
2022/07/09 06:53:53;;;;;;;0.70;0.10;;;21.70;99.90;;;;;;4917655;29;20479;-77
2022/07/09 06:56:22;;;;;;;0.70;0.10;;;21.60;99.90;;;;;;4917109;29;20456;-77
2022/07/09 06:58:50;;;;;;;0.70;0.10;;;21.60;99.90;;;;;;4918793;29;20556;-76
2022/07/09 07:01:21;;;;;;;0.70;0.20;;;21.80;99.90;;;;;;4919591;29;20960;-78
2022/07/09 07:03:52;;;;;;;0.70;0.10;;;21.80;99.90;;;;;;4940325;29;20506;-76
2022/07/09 07:06:21;;;;;;;0.70;0.10;;;21.90;99.90;;;;;;4934830;29;20484;-68
2022/07/09 07:08:49;;;;;;;0.70;0.30;;;21.90;99.90;;;;;;4928460;29;20463;-68
2022/07/09 07:11:18;;;;;;;0.70;0.20;;;;;;;;;;4939592;29;20444;-68
2022/07/09 07:13:45;;;;;;;0.70;0.10;;;22.10;99.90;;;;;;4943566;29;20467;-68
2022/07/09 07:16:14;;;;;;;0.70;0.20;;;22.20;99.90;;;;;;4927349;29;20956;-67
2022/07/09 07:18:42;;;;;;;0.70;0.10;;;22.40;99.90;;;;;;4918966;29;20480;-67
2022/07/09 07:21:10;;;;;;;0.70;0.20;;;22.40;99.90;;;;;;4938220;29;20479;-67
2022/07/09 07:23:39;;;;;;;0.70;0.10;;;22.60;99.90;;;;;;4934574;29;20471;-68
2022/07/09 07:26:07;;;;;;;0.70;0.13;;;22.70;99.90;;;;;;4935383;29;20484;-70
2022/07/09 07:28:35;;;;;;;0.70;0.20;;;22.80;99.90;;;;;;4935747;29;20451;-68
2022/07/09 07:31:04;;;;;;;0.70;0.13;;;23.00;99.90;;;;;;4935470;29;20474;-68
2022/07/09 07:33:32;;;;;;;0.70;0.20;;;23.00;99.90;;;;;;4935253;29;20796;-68
2022/07/09 07:36:00;;;;;;;0.70;0.10;;;23.00;99.90;;;;;;4931001;29;20449;-68
2022/07/09 07:38:28;;;;;;;0.70;0.10;;;23.00;99.90;;;;;;4915754;29;20497;-68
2022/07/09 07:40:57;;;;;;;0.70;0.10;;;23.00;99.90;;;;;;4916809;29;20448;-69
2022/07/09 07:43:25;;;;;;;0.70;0.10;;;23.00;99.90;;;;;;4916901;29;20567;-68
2022/07/09 07:45:53;;;;;;;0.70;0.20;;;22.90;99.90;;;;;;4915861;29;20461;-69
2022/07/09 07:48:20;;;;;;;0.70;0.10;;;22.90;99.90;;;;;;4915389;29;20816;-69
2022/07/09 07:50:48;;;;;;;0.70;0.10;;;22.90;99.90;;;;;;4915407;29;20841;-69
2022/07/09 07:53:16;;;;;;;0.70;0.10;;;22.80;99.90;;;;;;4922230;29;20498;-69
2022/07/09 07:55:44;;;;;;;0.70;0.10;;;22.90;99.90;;;;;;4934402;29;20456;-68
2022/07/09 07:58:13;;;;;;;0.70;0.20;;;22.80;99.90;;;;;;4933855;29;20539;-69
2022/07/09 08:00:42;;;;;;;0.70;0.10;;;22.80;99.90;;;;;;4934446;29;20514;-69
2022/07/09 08:03:09;;;;;;;0.70;0.20;;;22.80;99.90;;;;;;4936168;29;20479;-69
2022/07/09 08:05:38;;;;;;;0.70;0.13;;;;;;;;;;4936595;29;20654;-68
2022/07/09 08:08:06;;;;;;;0.70;0.10;;;22.90;99.90;;;;;;4936023;29;20484;-68
2022/07/09 08:10:33;;;;;;;0.70;0.10;;;22.90;99.90;;;;;;4935754;29;20836;-67
2022/07/09 08:13:03;;;;;;;0.70;0.10;;;23.10;99.90;;;;;;4934571;29;20489;-68
2022/07/09 08:15:32;;;;;;;0.70;0.10;;;23.20;99.90;;;;;;4936630;29;20452;-68
2022/07/09 08:18:00;;;;;;;0.70;0.10;;;23.20;99.90;;;;;;4937280;29;20819;-68
2022/07/09 08:20:28;;;;;;;0.70;0.10;;;23.20;99.90;;;;;;4935516;29;20522;-66
2022/07/09 08:22:56;;;;;;;0.70;0.20;;;23.30;99.90;;;;;;4935466;29;20468;-70
2022/07/09 08:25:24;;;;;;;0.70;0.10;;;23.30;99.90;;;;;;4935246;29;20444;-68
2022/07/09 08:27:52;;;;;;;0.70;0.10;;;23.40;99.90;;;;;;4934384;29;20491;-68
2022/07/09 08:30:20;;;;;;;0.70;0.17;;;23.40;99.90;;;;;;4934122;29;20458;-68
2022/07/09 08:32:49;;;;;;;0.70;0.17;;;23.40;99.90;;;;;;4944922;28;20459;-69
2022/07/09 08:35:17;;;;;;;0.70;0.10;;;23.40;99.90;;;;;;4947929;29;20439;-68
2022/07/09 08:37:45;;;;;;;0.70;0.10;;;23.40;99.90;;;;;;4948227;29;20444;-71
2022/07/09 08:40:13;;;;;;;0.70;0.10;;;23.30;99.90;;;;;;4949520;29;20959;-69
2022/07/09 08:42:40;;;;;;;0.70;0.20;;;23.30;99.90;;;;;;4943039;29;20556;-68
2022/07/09 08:45:13;;;;;;;0.70;0.20;;;23.40;99.90;;;;;;4920102;29;20467;-68
2022/07/09 08:47:42;;;;;;;1.00;0.20;;;23.40;99.90;;;;;;4919932;29;20485;-68
2022/07/09 08:50:11;;;;;;;0.70;0.10;;;23.40;99.90;;;;;;4919705;29;20467;-68
2022/07/09 08:52:41;;;;;;;0.70;0.10;;;23.60;99.90;;;;;;4919312;29;20504;-70
2022/07/09 08:55:10;;;;;;;0.70;0.20;;;23.60;99.90;;;;;;4920396;29;20453;-69
2022/07/09 08:57:38;;;;;;;0.70;0.10;;;23.70;99.90;;;;;;4922782;29;20528;-70
2022/07/09 09:00:07;;;;;;;0.70;0.10;;;23.70;99.90;;;;;;4949931;29;20459;-68
2022/07/09 09:02:36;;;;;;;0.70;0.10;;;23.90;99.90;;;;;;4937749;29;20480;-69
2022/07/09 09:05:14;;;;;;;0.70;0.10;;;23.90;99.90;;;;;;4935297;29;20984;-69
2022/07/09 09:07:42;;;;;;;1.33;0.43;;;24.00;99.90;;;;;;4939642;29;20587;-70
2022/07/09 09:10:21;;;;;;;0.70;0.10;;;23.90;99.90;;;;;;4938955;29;20444;-68
2022/07/09 09:12:50;;;;;;;0.70;0.27;;;24.00;99.90;;;;;;4937776;29;20870;-68
2022/07/09 09:15:19;;;;;;;0.80;0.20;;;24.00;99.90;;;;;;4937895;29;20870;-71
2022/07/09 09:17:47;;;;;;;0.70;0.37;;;24.20;99.90;;;;;;4941653;29;20439;-68
2022/07/09 09:20:18;;;;;;;0.70;0.23;;;24.30;99.90;;;;;;4956517;29;20964;-68
2022/07/09 09:22:47;;;;;;;0.70;0.20;;;24.40;99.90;;;;;;4956256;29;20467;-67
2022/07/09 09:25:19;;;;;;;0.70;0.20;;;24.50;99.90;;;;;;4942097;29;20444;-73
2022/07/09 09:27:52;;;;;;;0.90;0.50;;;24.50;99.90;;;;;;4923821;29;20476;-73
2022/07/09 09:30:20;;;;;;;1.00;0.50;;;24.50;99.90;;;;;;4937255;29;20456;-73
2022/07/09 09:32:57;;;;;;;0.70;0.10;;;24.50;99.90;;;;;;4918697;29;20544;-73
2022/07/09 09:35:27;;;;;;;0.70;0.10;;;24.50;99.90;;;;;;4937298;29;20443;-74
2022/07/09 09:37:55;;;;;;;0.70;0.10;;;24.40;99.90;;;;;;4940081;29;20444;-73
2022/07/09 09:40:24;;;;;;;0.70;0.10;;;24.40;99.90;;;;;;4941471;29;20448;-74
2022/07/09 09:42:53;;;;;;;0.70;0.20;;;24.20;99.90;;;;;;4941467;29;20527;-74
2022/07/09 09:45:25;;;;;;;0.70;0.10;;;24.20;99.90;;;;;;4942816;29;20558;-73
2022/07/09 09:47:54;;;;;;;0.70;0.10;;;24.10;99.90;;;;;;4941441;29;20480;-73
2022/07/09 09:50:28;;;;;;;0.70;0.20;;;24.20;99.90;;;;;;4939731;29;20479;-72
2022/07/09 09:52:56;;;;;;;0.70;0.10;;;24.20;99.90;;;;;;4939865;29;20478;-72
2022/07/09 09:55:25;;;;;;;1.43;1.33;;;24.10;99.90;;;;;;4938534;29;20973;-73
2022/07/09 09:57:54;;;;;;;0.70;0.20;;;24.10;99.90;;;;;;4937347;29;20440;-72
2022/07/09 10:00:22;;;;;;;0.70;0.20;;;23.80;99.90;;;;;;4938133;29;20448;-72
2022/07/09 10:02:51;;;;;;;0.83;0.33;;;23.80;99.90;;;;;;4938234;29;20565;-72
2022/07/09 10:05:19;;;;;;;0.70;0.10;;;23.80;99.90;;;;;;4936893;29;20769;-73
2022/07/09 10:07:48;;;;;;;0.70;0.20;;;23.90;99.90;;;;;;4934453;29;20551;-74
2022/07/09 10:10:19;;;;;;;0.70;0.20;;;24.00;99.90;;;;;;4937216;29;20448;-73
2022/07/09 10:12:47;;;;;;;0.70;0.20;;;24.10;99.90;;;;;;4936423;29;20467;-72
2022/07/09 10:15:24;;;;;;;0.70;0.27;;;24.20;99.90;;;;;;4935920;29;20444;-73
2022/07/09 10:17:52;;;;;;;0.70;0.10;;;24.30;99.90;;;;;;4935592;29;20447;-74
2022/07/09 10:20:33;;;;;;;0.70;0.20;;;24.50;99.90;;;;;;4935711;29;20886;-74
2022/07/09 10:23:03;;;;;;;0.70;0.20;;;24.70;99.90;;;;;;4934006;29;20483;-74
2022/07/09 10:25:42;;;;;;;0.70;0.20;;;24.80;99.90;;;;;;4935972;29;20842;-74
2022/07/09 10:28:16;;;;;;;0.70;0.10;;;24.80;99.90;;;;;;4935280;29;20475;-73
2022/07/09 10:30:45;;;;;;;0.70;0.10;;;24.90;99.90;;;;;;4935335;29;20447;-74
2022/07/09 10:33:14;;;;;;;0.70;0.10;;;25.10;99.90;;;;;;4936014;29;20506;-73
2022/07/09 10:35:44;;;;;;;0.70;0.10;;;25.20;99.90;;;;;;4935458;29;20455;-76
2022/07/09 10:38:14;;;;;;;0.70;0.10;;;25.30;99.90;;;;;;4935222;29;20447;-74
2022/07/09 10:40:44;;;;;;;0.70;0.10;;;25.20;99.90;;;;;;4924158;29;20448;-75
2022/07/09 10:43:13;;;;;;;0.70;0.10;;;25.20;99.90;;;;;;4916600;29;20555;-75
2022/07/09 10:45:42;;;;;;;0.70;0.20;;;25.20;99.90;;;;;;4916477;29;20445;-73
2022/07/09 10:48:11;;;;;;;0.77;0.30;;;25.30;99.90;;;;;;4916405;29;20906;-75
2022/07/09 10:50:41;;;;;;;0.70;0.10;;;25.30;99.90;;;;;;4916423;29;20457;-73
2022/07/09 10:53:11;;;;;;;0.70;0.20;;;25.30;99.90;;;;;;4916289;29;20480;-72
2022/07/09 10:55:43;;;;;;;0.70;0.20;;;25.50;99.90;;;;;;4915781;29;20449;-76
2022/07/09 10:58:17;;;;;;;0.70;0.10;;;25.70;99.90;;;;;;4916026;29;20483;-73
2022/07/09 11:00:45;;;;;;;0.70;0.20;;;25.70;99.90;;;;;;4915627;29;20982;-73
2022/07/09 11:03:13;;;;;;;0.70;0.20;;;25.80;99.90;;;;;;4921891;29;20482;-72
2022/07/09 11:05:45;;;;;;;0.70;0.20;;;25.90;99.90;;;;;;4935182;29;20456;-73
2022/07/09 11:08:13;;;;;;;0.70;0.20;;;25.90;99.90;;;;;;4936206;29;20483;-72
2022/07/09 11:10:43;;;;;;;0.70;0.10;;;25.80;99.90;;;;;;4937415;29;20448;-74
2022/07/09 11:13:17;;;;;;;0.70;0.13;;;25.60;99.90;;;;;;4936409;29;20463;-72
2022/07/09 11:15:45;;;;;;;0.70;0.10;;;25.50;99.90;;;;;;4937702;29;20523;-73
2022/07/09 11:18:14;;;;;;;0.70;0.20;;;25.50;99.90;;;;;;4939385;29;20458;-73
2022/07/09 11:20:44;;;;;;;0.70;0.10;;;25.40;99.90;;;;;;4937859;29;20459;-73
2022/07/09 11:23:13;;;;;;;0.70;0.20;;;25.40;99.90;;;;;;4935956;29;20524;-73
2022/07/09 11:25:43;;;;;;;0.70;0.13;;;25.50;99.90;;;;;;4935531;29;20547;-74
2022/07/09 11:28:20;;;;;;;0.70;0.20;;;25.70;99.90;;;;;;4935327;29;20484;-74
2022/07/09 11:30:59;;;;;;;0.70;0.20;;;26.00;99.90;;;;;;4934503;29;20448;-74
2022/07/09 11:33:28;;;;;;;0.80;0.30;;;26.00;99.90;;;;;;4934366;29;20470;-73
2022/07/09 11:36:02;;;;;;;0.70;0.10;;;;;;;;;;4933625;29;20467;-74
2022/07/09 11:38:29;;;;;;;0.70;0.20;;;26.00;99.90;;;;;;4938152;29;20459;-73
2022/07/09 11:41:02;;;;;;;0.70;0.20;;;26.00;99.90;;;;;;4934161;29;20455;-73
2022/07/09 11:43:30;;;;;;;0.70;0.10;;;26.10;99.90;;;;;;4934030;29;20479;-73
2022/07/09 11:45:58;;;;;;;0.70;0.20;;;26.10;99.90;;;;;;4933170;29;20459;-74
2022/07/09 11:48:25;;;;;;;0.90;0.20;;;26.10;99.90;;;;;;4935287;29;20484;-73
2022/07/09 11:50:53;;;;;;;0.70;0.20;;;26.00;99.90;;;;;;4933629;29;20905;-72
2022/07/09 11:53:21;;;;;;;0.70;0.20;;;26.10;99.90;;;;;;4934738;29;20555;-73
2022/07/09 11:55:59;;;;;;;0.70;0.27;;;26.20;99.90;;;;;;4935512;29;20535;-75
2022/07/09 11:58:29;;;;;;;0.70;0.13;;;26.30;99.90;;;;;;4937355;29;20446;-73
2022/07/09 12:00:59;;;;;;;0.90;0.77;;;26.00;99.90;;;;;;4936837;29;20487;-73
2022/07/09 12:03:29;;;;;;;0.70;0.10;;;26.00;99.90;;;;;;4935755;29;20483;-76
2022/07/09 12:05:58;;;;;;;1.00;0.67;;;26.00;99.90;;;;;;4936105;29;21010;-75
2022/07/09 12:08:30;;;;;;;0.70;0.20;;;25.80;99.90;;;;;;4928738;29;21042;-77
2022/07/09 12:11:00;;;;;;;0.70;0.20;;;25.80;99.90;;;;;;4919887;29;20449;-76
2022/07/09 12:13:29;;;;;;;0.70;0.10;;;25.80;99.90;;;;;;4920123;29;20560;-76
2022/07/09 12:15:58;;;;;;;0.70;0.20;;;25.80;99.90;;;;;;4921565;29;20487;-77
2022/07/09 12:18:27;;;;;;;0.70;0.20;;;25.90;99.90;;;;;;4921412;29;20453;-76
2022/07/09 12:20:55;;;;;;;0.70;0.20;;;25.80;99.90;;;;;;4920083;29;20682;-76
2022/07/09 12:23:23;;;;;;;0.70;0.10;;;26.00;99.90;;;;;;4920061;29;20480;-76
2022/07/09 12:25:50;;;;;;;0.80;0.60;;;26.10;99.90;;;;;;4920728;29;20551;-76
2022/07/09 12:28:18;;;;;;;0.70;0.20;;;26.20;99.90;;;;;;4929441;29;20530;-75
2022/07/09 12:30:49;;;;;;;0.70;0.10;;;;;;;;;;4940045;29;20444;-76
2022/07/09 12:33:17;;;;;;;0.70;0.20;;;26.30;99.90;;;;;;4936711;29;20482;-77
2022/07/09 12:35:45;;;;;;;0.70;0.10;;;26.40;99.90;;;;;;4923582;29;20536;-76
2022/07/09 12:38:13;;;;;;;0.70;0.10;;;26.50;99.90;;;;;;4936505;29;20451;-76
2022/07/09 12:40:41;;;;;;;0.70;0.20;;;26.60;99.90;;;;;;4939839;29;20452;-76
2022/07/09 12:43:09;;;;;;;0.70;0.10;;;26.60;99.90;;;;;;4939442;29;20478;-75
2022/07/09 12:45:37;;;;;;;0.70;0.30;;;26.60;99.90;;;;;;4939117;29;20474;-76
2022/07/09 12:48:06;;;;;;;0.70;0.17;;;26.70;99.90;;;;;;4937469;29;20455;-76
2022/07/09 12:50:34;;;;;;;0.70;0.20;;;26.60;99.90;;;;;;4928400;29;20539;-76
2022/07/09 12:53:02;;;;;;;0.70;0.10;;;26.60;99.90;;;;;;4919382;29;20558;-76
2022/07/09 12:55:30;;;;;;;0.70;0.10;;;26.60;99.90;;;;;;4919198;29;20496;-75
2022/07/09 12:58:18;;;;;;;0.70;0.20;;;26.70;99.90;;;;;;4920230;29;20452;-76
2022/07/09 13:00:46;;;;;;;0.70;0.20;;;26.80;99.90;;;;;;4919394;29;20453;-76